<?xml version="1.0" encoding="UTF-8" standalone="no" ?>
<gpx xmlns="http://www.topografix.com/GPX/1/1" xmlns:xsi="http://www.w3.org/2001/XMLSchema-instance" xsi:schemaLocation="http://www.topografix.com/GPX/1/1 http://www.topografix.com/GPX/1/1/gpx.xsd" version="1.1" creator="VisuGPX - https://www.visugpx.com">
  <metadata>
    <name>9770927-Beaufort en Gervanne/ Die</name>
    <desc><![CDATA[La Route des Mulets ® 
Grand itinéraire EquiLiberté du Poitou/Charente à l'Italie]]></desc>
  </metadata>
  <trk>
    <name><![CDATA[9770927-Beaufort en Gervanne/ Die]]></name>
    <trkseg>
      <trkpt lat="44.77666" lon="5.14694">
        <ele>356</ele>
        <time>2020-12-26T18:06:59Z</time>
      </trkpt>
      <trkpt lat="44.77855" lon="5.15967">
        <ele>473</ele>
        <time>2020-12-26T18:19:18Z</time>
      </trkpt>
      <trkpt lat="44.78433" lon="5.16716">
        <ele>534</ele>
        <time>2020-12-26T18:29:47Z</time>
      </trkpt>
      <trkpt lat="44.78835" lon="5.17825">
        <ele>599</ele>
        <time>2020-12-26T18:41:35Z</time>
      </trkpt>
      <trkpt lat="44.78942" lon="5.18387">
        <ele>582</ele>
        <time>2020-12-26T18:47:05Z</time>
      </trkpt>
      <trkpt lat="44.78784" lon="5.19213">
        <ele>584</ele>
        <time>2020-12-26T18:55:11Z</time>
      </trkpt>
      <trkpt lat="44.78908" lon="5.19507">
        <ele>605</ele>
        <time>2020-12-26T18:58:26Z</time>
      </trkpt>
      <trkpt lat="44.79274" lon="5.19881">
        <ele>699</ele>
        <time>2020-12-26T19:04:28Z</time>
      </trkpt>
      <trkpt lat="44.78924" lon="5.19898">
        <ele>700</ele>
        <time>2020-12-26T19:09:08Z</time>
      </trkpt>
      <trkpt lat="44.78741" lon="5.20426">
        <ele>715</ele>
        <time>2020-12-26T19:14:42Z</time>
      </trkpt>
      <trkpt lat="44.78717" lon="5.20675">
        <ele>744</ele>
        <time>2020-12-26T19:17:05Z</time>
      </trkpt>
      <trkpt lat="44.78586" lon="5.20808">
        <ele>762</ele>
        <time>2020-12-26T19:19:14Z</time>
      </trkpt>
      <trkpt lat="44.78509" lon="5.21134">
        <ele>798</ele>
        <time>2020-12-26T19:22:29Z</time>
      </trkpt>
      <trkpt lat="44.7843" lon="5.2122">
        <ele>807</ele>
        <time>2020-12-26T19:23:49Z</time>
      </trkpt>
      <trkpt lat="44.78455" lon="5.21542">
        <ele>830</ele>
        <time>2020-12-26T19:26:53Z</time>
      </trkpt>
      <trkpt lat="44.78388" lon="5.21722">
        <ele>812</ele>
        <time>2020-12-26T19:28:49Z</time>
      </trkpt>
      <trkpt lat="44.7815" lon="5.21962">
        <ele>847</ele>
        <time>2020-12-26T19:32:43Z</time>
      </trkpt>
      <trkpt lat="44.78342" lon="5.2255">
        <ele>856</ele>
        <time>2020-12-26T19:38:51Z</time>
      </trkpt>
      <trkpt lat="44.77915" lon="5.23155">
        <ele>875</ele>
        <time>2020-12-26T19:46:56Z</time>
      </trkpt>
      <trkpt lat="44.77867" lon="5.23417">
        <ele>814</ele>
        <time>2020-12-26T19:49:30Z</time>
      </trkpt>
      <trkpt lat="44.77949" lon="5.24168">
        <ele>706</ele>
        <time>2020-12-26T19:56:42Z</time>
      </trkpt>
      <trkpt lat="44.77797" lon="5.24571">
        <ele>674</ele>
        <time>2020-12-26T20:01:01Z</time>
      </trkpt>
      <trkpt lat="44.77876" lon="5.24966">
        <ele>629</ele>
        <time>2020-12-26T20:04:54Z</time>
      </trkpt>
      <trkpt lat="44.77647" lon="5.25365">
        <ele>579</ele>
        <time>2020-12-26T20:09:46Z</time>
      </trkpt>
      <trkpt lat="44.77827" lon="5.25846">
        <ele>527</ele>
        <time>2020-12-26T20:14:55Z</time>
      </trkpt>
      <trkpt lat="44.77775" lon="5.26069">
        <ele>519</ele>
        <time>2020-12-26T20:17:08Z</time>
      </trkpt>
      <trkpt lat="44.77812" lon="5.26344">
        <ele>512</ele>
        <time>2020-12-26T20:19:47Z</time>
      </trkpt>
      <trkpt lat="44.77011" lon="5.27348">
        <ele>435</ele>
        <time>2020-12-26T20:34:06Z</time>
      </trkpt>
      <trkpt lat="44.76992" lon="5.2776">
        <ele>432</ele>
        <time>2020-12-26T20:38:01Z</time>
      </trkpt>
      <trkpt lat="44.76852" lon="5.28389">
        <ele>392</ele>
        <time>2020-12-26T20:44:15Z</time>
      </trkpt>
      <trkpt lat="44.77026" lon="5.2856">
        <ele>380</ele>
        <time>2020-12-26T20:47:05Z</time>
      </trkpt>
      <trkpt lat="44.77029" lon="5.29191">
        <ele>402</ele>
        <time>2020-12-26T20:53:04Z</time>
      </trkpt>
      <trkpt lat="44.76788" lon="5.29642">
        <ele>380</ele>
        <time>2020-12-26T20:58:25Z</time>
      </trkpt>
      <trkpt lat="44.76505" lon="5.29912">
        <ele>375</ele>
        <time>2020-12-26T21:02:58Z</time>
      </trkpt>
      <trkpt lat="44.76496" lon="5.30097">
        <ele>404</ele>
        <time>2020-12-26T21:04:44Z</time>
      </trkpt>
      <trkpt lat="44.76535" lon="5.30678">
        <ele>375</ele>
        <time>2020-12-26T21:10:16Z</time>
      </trkpt>
      <trkpt lat="44.76718" lon="5.30946">
        <ele>369</ele>
        <time>2020-12-26T21:13:47Z</time>
      </trkpt>
      <trkpt lat="44.76986" lon="5.31964">
        <ele>366</ele>
        <time>2020-12-26T21:24:04Z</time>
      </trkpt>
      <trkpt lat="44.76861" lon="5.32408">
        <ele>368</ele>
        <time>2020-12-26T21:28:36Z</time>
      </trkpt>
      <trkpt lat="44.76773" lon="5.33225">
        <ele>370</ele>
        <time>2020-12-26T21:36:25Z</time>
      </trkpt>
      <trkpt lat="44.76822" lon="5.33536">
        <ele>374</ele>
        <time>2020-12-26T21:39:26Z</time>
      </trkpt>
      <trkpt lat="44.76956" lon="5.33727">
        <ele>378</ele>
        <time>2020-12-26T21:41:59Z</time>
      </trkpt>
      <trkpt lat="44.76773" lon="5.34463">
        <ele>386</ele>
        <time>2020-12-26T21:49:22Z</time>
      </trkpt>
      <trkpt lat="44.76861" lon="5.35006">
        <ele>391</ele>
        <time>2020-12-26T21:54:39Z</time>
      </trkpt>
      <trkpt lat="44.76715" lon="5.35225">
        <ele>391</ele>
        <time>2020-12-26T21:57:30Z</time>
      </trkpt>
      <trkpt lat="44.76584" lon="5.34948">
        <ele>390</ele>
        <time>2020-12-26T22:00:39Z</time>
      </trkpt>
      <trkpt lat="44.76173" lon="5.35015">
        <ele>385</ele>
        <time>2020-12-26T22:06:10Z</time>
      </trkpt>
      <trkpt lat="44.76005" lon="5.35174">
        <ele>383</ele>
        <time>2020-12-26T22:08:52Z</time>
      </trkpt>
      <trkpt lat="44.75585" lon="5.36607">
        <ele>399</ele>
        <time>2020-12-26T22:23:34Z</time>
      </trkpt>
    </trkseg>
  </trk>
</gpx>